createdAt,value
2019-01-11T13:29:53.246Z,64.31
2019-01-11T13:30:53.010Z,64.78
2019-01-11T13:32:48.250Z,64.78
2019-01-11T13:33:48.140Z,64.78
2019-01-11T13:35:44.263Z,64.50
2019-01-11T13:36:44.107Z,64.69
2019-01-11T13:38:39.394Z,64.78
2019-01-11T13:39:39.278Z,64.81
2019-01-11T13:41:34.512Z,64.21
2019-01-11T13:42:34.460Z,63.83
2019-01-11T13:44:29.686Z,63.96
2019-01-11T13:45:29.579Z,63.86
2019-01-11T13:47:25.681Z,63.64
2019-01-11T13:48:25.569Z,64.15
2019-01-11T13:50:20.839Z,64.15
2019-01-11T13:51:20.724Z,63.96
2019-01-11T13:53:15.993Z,64.15
2019-01-11T13:54:15.883Z,64.24
2019-01-11T13:56:11.162Z,63.96
2019-01-11T13:57:11.064Z,64.05
2019-01-11T13:59:06.355Z,64.05
2019-01-11T14:00:06.243Z,64.43
2019-01-11T14:02:01.521Z,64.24
2019-01-11T14:03:01.417Z,63.57
2019-01-11T14:04:56.666Z,64.43
2019-01-11T14:05:56.569Z,64.72
2019-01-11T14:07:52.735Z,64.15
2019-01-11T14:08:52.674Z,64.24
2019-01-11T14:10:47.906Z,64.05
2019-01-11T14:11:47.802Z,64.05
2019-01-11T14:13:43.106Z,64.81
2019-01-11T14:14:42.985Z,64.90
2019-01-11T14:16:39.073Z,63.86
2019-01-11T14:17:38.968Z,64.15
2019-01-11T14:19:34.239Z,64.15
2019-01-11T14:20:34.130Z,63.76
2019-01-11T14:22:29.399Z,63.86
2019-01-11T14:23:29.304Z,64.34
2019-01-11T14:25:24.579Z,64.72
2019-01-11T14:26:24.489Z,64.81
2019-01-11T14:28:19.755Z,64.90
2019-01-11T14:29:19.641Z,64.90
2019-01-11T14:31:15.724Z,64.43
2019-01-11T14:32:15.625Z,64.72
2019-01-11T14:34:10.886Z,64.05
2019-01-11T14:35:10.786Z,64.15
2019-01-11T14:37:06.963Z,64.72
2019-01-11T14:38:06.828Z,64.81
2019-01-11T14:40:02.908Z,64.72
2019-01-11T14:41:02.818Z,64.05
2019-01-11T14:42:58.065Z,64.24
2019-01-11T14:43:57.978Z,64.24
2019-01-11T14:45:53.222Z,63.76
2019-01-11T14:46:53.116Z,63.96
2019-01-11T14:48:48.382Z,64.05
2019-01-11T14:49:48.289Z,64.05
2019-01-11T14:51:43.563Z,64.43
2019-01-11T14:52:43.463Z,64.15
2019-01-11T14:54:39.540Z,64.24
2019-01-11T14:55:39.450Z,64.05
2019-01-11T14:57:36.266Z,63.67
2019-01-11T14:58:36.133Z,64.05
2019-01-11T15:00:32.233Z,63.57
2019-01-11T15:01:32.143Z,64.05
2019-01-11T15:03:27.413Z,64.05
2019-01-11T15:04:27.307Z,64.15
2019-01-11T15:06:22.546Z,63.76
2019-01-11T15:07:22.467Z,63.86
2019-01-11T15:09:17.715Z,63.76
2019-01-11T15:10:17.605Z,63.76
2019-01-11T15:12:12.877Z,63.76
2019-01-11T15:13:12.769Z,63.86
2019-01-11T15:15:08.025Z,63.76
2019-01-11T15:16:07.932Z,63.76
2019-01-11T15:18:03.201Z,63.67
2019-01-11T15:19:03.096Z,63.67
2019-01-11T15:20:58.359Z,64.05
2019-01-11T15:21:58.271Z,64.34
2019-01-11T15:23:54.364Z,64.24
2019-01-11T15:24:54.282Z,63.96
2019-01-11T15:26:49.574Z,64.15
2019-01-11T15:27:49.449Z,64.15
2019-01-11T15:29:45.569Z,64.15
2019-01-11T15:30:45.547Z,63.48
2019-01-11T15:32:40.745Z,63.20
2019-01-11T15:33:40.642Z,62.81
2019-01-11T15:35:35.925Z,63.10
2019-01-11T15:36:35.808Z,63.29
2019-01-11T15:38:31.074Z,63.39
2019-01-11T15:39:30.995Z,63.20
2019-01-11T15:42:19.020Z,63.39
2019-01-11T15:43:18.916Z,62.91
2019-01-11T15:45:15.065Z,62.05
2019-01-11T15:46:15.344Z,62.53
2019-01-11T15:48:11.013Z,62.24
2019-01-11T15:49:10.923Z,62.24
2019-01-11T15:51:06.177Z,62.81
2019-01-11T15:52:06.083Z,62.72
2019-01-11T15:54:01.334Z,62.53
2019-01-11T15:55:01.265Z,63.20
2019-01-11T15:56:56.524Z,63.20
2019-01-11T15:57:56.420Z,62.81
2019-01-11T15:59:51.686Z,62.53
2019-01-11T16:00:51.580Z,62.69
2019-01-11T19:29:23.302Z,72.03
2019-01-11T19:30:23.090Z,72.41
2019-01-11T19:32:18.322Z,72.41
2019-01-11T19:33:18.228Z,72.51
2019-01-11T19:35:13.559Z,72.99
2019-01-11T19:36:13.363Z,73.18
2019-01-11T19:38:08.672Z,72.79
2019-01-11T19:39:08.565Z,73.46
2019-01-11T19:41:03.806Z,73.36
2019-01-11T19:42:03.689Z,73.65
2019-01-11T19:43:58.953Z,74.03
2019-01-11T19:44:58.847Z,74.31
2019-01-11T19:46:54.911Z,74.79
2019-01-11T19:47:54.815Z,74.41
2019-01-11T19:49:50.073Z,74.37
2019-01-11T19:50:49.962Z,74.69
2019-01-11T19:52:45.201Z,74.41
2019-01-11T19:53:45.124Z,74.88
2019-01-11T19:55:41.186Z,74.85
2019-01-11T19:56:41.101Z,74.47
2019-01-11T19:58:36.387Z,74.94
2019-01-11T19:59:36.236Z,74.51
2019-01-11T20:00:36.161Z,74.60
2019-01-11T20:01:36.144Z,74.60
2019-01-11T20:02:36.016Z,74.75
2019-01-11T20:03:35.940Z,74.79
2019-01-11T20:04:35.860Z,74.60
2019-01-11T20:05:35.779Z,74.69
2019-01-11T20:06:35.698Z,75.32
2019-01-11T20:07:35.638Z,74.94
2019-01-11T20:08:35.588Z,75.55
2019-01-11T20:09:35.483Z,74.69
2019-01-11T20:10:35.438Z,75.17
2019-01-11T20:11:35.312Z,75.17
2019-01-11T20:12:35.246Z,75.07
2019-01-11T20:13:35.183Z,75.07
2019-01-11T20:14:35.095Z,74.69
2019-01-11T20:15:35.044Z,74.98
2019-01-11T20:16:34.963Z,74.60
2019-01-11T20:17:34.873Z,75.17
2019-01-11T20:18:34.825Z,75.26
2019-01-11T20:19:34.715Z,74.88
2019-01-11T20:20:34.632Z,74.51
2019-01-11T20:21:34.569Z,74.88
2019-01-11T20:22:34.501Z,74.60
2019-01-11T20:23:36.807Z,74.69
2019-01-11T20:24:34.336Z,74.60
2019-01-11T20:25:34.252Z,74.41
2019-01-11T20:26:34.171Z,74.51
2019-01-11T20:27:34.155Z,74.79
2019-01-11T20:28:34.039Z,74.60
2019-01-11T20:29:33.960Z,74.98
2019-01-11T20:30:33.895Z,75.36
2019-01-11T20:31:33.810Z,75.70
2019-01-11T20:32:33.729Z,75.99
2019-01-11T20:33:33.657Z,75.70
2019-01-11T20:34:33.594Z,76.56
2019-01-11T20:35:33.511Z,75.89
2019-01-11T20:36:33.432Z,76.27
2019-01-11T20:37:33.576Z,76.46
2019-01-11T20:38:33.300Z,76.75
2019-01-11T20:39:33.190Z,76.97
2019-01-11T20:40:33.122Z,76.88
2019-01-11T20:41:33.043Z,76.69
2019-01-11T20:42:32.959Z,76.59
2019-01-11T20:43:32.895Z,76.97
2019-01-11T20:44:32.821Z,76.97
2019-01-11T20:45:32.745Z,76.59
2019-01-11T20:46:32.669Z,76.97
2019-01-11T20:47:32.613Z,77.17
2019-01-11T20:48:32.505Z,76.88
2019-01-11T20:49:32.426Z,76.88
2019-01-11T20:50:32.361Z,77.07
2019-01-11T20:51:32.309Z,77.07
2019-01-11T20:52:32.212Z,77.36
2019-01-11T20:53:32.130Z,77.31
2019-01-11T20:54:32.067Z,77.55
2019-01-11T20:55:31.987Z,77.36
2019-01-11T20:56:31.914Z,77.64
2019-01-11T20:57:31.838Z,77.36
2019-01-11T20:58:31.755Z,76.69
2019-01-11T20:59:31.674Z,76.69
2019-01-11T21:00:31.612Z,76.78
2019-01-11T21:01:31.520Z,76.97
2019-01-11T21:02:31.447Z,77.17
2019-01-11T21:03:31.376Z,77.36
2019-01-11T21:04:31.302Z,77.26
2019-01-11T21:05:31.226Z,77.26
2019-01-11T21:06:31.154Z,76.88
2019-01-11T21:07:31.082Z,77.36
2019-01-11T21:08:30.989Z,77.83
2019-01-11T21:09:30.925Z,78.08
2019-01-11T21:10:30.847Z,77.92
2019-01-11T21:11:30.761Z,78.21
2019-01-11T21:12:30.689Z,77.92
2019-01-11T21:13:30.609Z,77.55
2019-01-11T21:14:30.535Z,77.64
2019-01-11T21:15:30.471Z,77.45
2019-01-11T21:16:30.395Z,77.36
2019-01-11T21:17:30.322Z,77.45
2019-01-11T21:18:30.243Z,77.64
2019-01-11T21:19:30.160Z,77.92
2019-01-11T21:20:30.082Z,77.73
2019-01-11T21:21:30.030Z,77.55
2019-01-11T21:22:29.929Z,77.83
2019-01-11T21:23:29.865Z,78.02
2019-01-11T21:24:29.788Z,78.02
2019-01-11T21:25:29.704Z,78.50
2019-01-11T21:26:29.636Z,78.69
2019-01-11T21:27:29.573Z,78.11
2019-01-11T21:28:29.499Z,78.27
2019-01-11T21:29:29.417Z,78.88
2019-01-11T21:30:29.334Z,78.78
2019-01-11T21:31:29.251Z,78.45
2019-01-11T21:32:29.172Z,78.69
2019-01-11T21:33:29.111Z,78.59
2019-01-11T21:34:29.035Z,78.50
2019-01-11T21:35:28.942Z,78.78
2019-01-11T21:36:28.869Z,78.69
2019-01-11T21:37:28.843Z,78.74
2019-01-11T21:38:28.740Z,78.69
2019-01-11T21:39:28.648Z,79.25
2019-01-11T21:40:28.592Z,79.16
2019-01-11T21:41:28.529Z,79.31
2019-01-11T21:42:28.415Z,79.03
2019-01-11T21:43:28.353Z,79.79
2019-01-11T21:44:28.284Z,79.60
2019-01-11T21:45:28.208Z,79.92
2019-01-11T21:46:28.127Z,79.60
2019-01-11T21:47:28.041Z,79.60
2019-01-11T21:48:27.960Z,79.50
2019-01-11T21:49:27.890Z,79.69
2019-01-11T21:50:29.027Z,80.07
2019-01-11T21:51:27.760Z,79.79
2019-01-11T21:52:27.676Z,80.11
2019-01-11T21:53:27.646Z,80.02
2019-01-11T21:54:27.512Z,79.54
2019-01-11T21:55:27.454Z,79.92
2019-01-11T21:56:27.355Z,79.83
2019-01-11T21:57:27.305Z,79.63
2019-01-11T21:58:27.215Z,79.25
2019-01-11T21:59:27.133Z,79.92
2019-01-11T22:00:27.055Z,80.30
2019-01-11T22:01:26.993Z,79.92
2019-01-11T22:02:26.905Z,80.11
2019-01-11T22:03:26.844Z,80.30
2019-01-11T22:04:26.759Z,80.77
2019-01-11T22:05:26.705Z,80.49
2019-01-11T22:06:26.613Z,81.21
2019-01-11T22:07:26.524Z,81.82
2019-01-11T22:08:26.445Z,81.82
2019-01-11T22:09:26.373Z,82.16
2019-01-11T22:10:26.299Z,82.73
2019-01-11T22:11:26.229Z,82.73
2019-01-11T22:12:26.149Z,82.96
2019-01-11T22:13:26.074Z,83.06
2019-01-11T22:14:25.992Z,83.06
2019-01-11T22:15:25.926Z,83.01
2019-01-11T22:16:25.855Z,83.30
2019-01-11T22:17:25.776Z,83.68
2019-01-11T22:18:25.695Z,84.91
2019-01-11T22:19:25.617Z,84.72
2019-01-11T22:20:25.533Z,84.72
2019-01-11T22:21:25.469Z,84.53
2019-01-11T22:22:25.402Z,84.63
2019-01-11T22:23:25.324Z,85.30
2019-01-11T22:24:25.246Z,85.15
2019-01-11T22:25:25.202Z,84.53
2019-01-11T22:26:25.085Z,84.86
2019-01-11T22:27:25.668Z,84.63
2019-01-11T22:28:24.927Z,85.49
2019-01-11T22:29:24.868Z,85.86
2019-01-11T22:30:30.173Z,85.86
2019-01-11T22:31:24.717Z,85.49
2019-01-11T22:32:24.757Z,85.86
2019-01-11T22:33:24.597Z,86.34
2019-01-11T22:34:24.469Z,86.34
2019-01-11T22:35:24.424Z,86.43
2019-01-11T22:36:24.338Z,86.63
2019-01-11T22:37:24.262Z,86.63
2019-01-11T22:38:24.186Z,86.15
2019-01-11T22:39:24.103Z,86.43
2019-01-11T22:40:24.028Z,86.63
2019-01-11T22:41:23.969Z,86.43
2019-01-11T22:42:23.880Z,86.15
2019-01-11T22:43:23.787Z,86.15
2019-01-11T22:44:23.734Z,86.24
2019-01-11T22:45:23.651Z,87.01
2019-01-11T22:46:23.567Z,86.43
2019-01-11T22:47:23.509Z,86.43
2019-01-11T22:48:23.420Z,86.29
2019-01-11T22:49:23.333Z,86.47
2019-01-11T22:50:23.273Z,86.38
2019-01-11T22:51:23.192Z,86.29
2019-01-11T22:52:23.114Z,86.24
2019-01-11T22:53:23.047Z,86.29
2019-01-11T22:54:22.967Z,86.34
2019-01-11T22:55:22.892Z,86.67
2019-01-11T22:56:22.805Z,87.38
2019-01-11T22:57:22.731Z,87.29
2019-01-11T22:58:22.650Z,87.43
2019-01-11T22:59:22.585Z,87.38
2019-01-11T23:00:22.506Z,88.34
2019-01-11T23:01:22.420Z,88.24
2019-01-11T23:02:22.348Z,88.24
2019-01-11T23:03:22.290Z,88.67
2019-01-11T23:04:22.207Z,88.62
2019-01-11T23:05:22.136Z,88.81
2019-01-11T23:06:22.051Z,89.57
2019-01-11T23:07:21.987Z,89.38
2019-01-11T23:08:21.890Z,89.47
2019-01-11T23:09:21.811Z,89.38
2019-01-11T23:10:21.766Z,89.00
2019-01-11T23:11:21.670Z,89.09
2019-01-11T23:12:21.596Z,89.61
2019-01-11T23:13:21.516Z,89.57
2019-01-11T23:14:21.441Z,89.86
2019-01-11T23:15:21.353Z,89.95
2019-01-11T23:16:21.279Z,89.76
2019-01-11T23:17:21.216Z,89.76
2019-01-11T23:18:21.137Z,90.14
2019-01-11T23:19:21.053Z,90.42
2019-01-11T23:20:20.979Z,90.61
2019-01-11T23:21:20.924Z,90.61
2019-01-11T23:22:20.838Z,90.33
2019-01-11T23:23:20.755Z,90.52
2019-01-11T23:24:20.710Z,90.71
2019-01-11T23:25:20.612Z,90.23
2019-01-11T23:26:20.527Z,90.52
2019-01-11T23:27:20.441Z,90.14
2019-01-11T23:28:20.382Z,90.42
2019-01-11T23:29:20.285Z,89.67
2019-01-11T23:30:20.220Z,89.67
2019-01-11T23:31:20.449Z,90.33
2019-01-11T23:32:20.069Z,89.86
2019-01-11T23:33:19.990Z,89.76
2019-01-11T23:34:19.910Z,89.86
2019-01-11T23:35:19.841Z,89.47
2019-01-11T23:36:19.771Z,89.38
2019-01-11T23:37:19.688Z,89.95
2019-01-11T23:38:19.615Z,90.23
2019-01-11T23:39:19.527Z,90.71
2019-01-11T23:40:19.488Z,90.61
2019-01-11T23:41:19.393Z,90.52
2019-01-11T23:42:19.308Z,90.42
2019-01-11T23:43:19.226Z,90.52
2019-01-11T23:44:19.148Z,90.05
2019-01-11T23:45:19.072Z,91.09
2019-01-11T23:46:18.999Z,90.80
2019-01-11T23:47:18.932Z,91.47
2019-01-11T23:48:18.857Z,91.38
2019-01-11T23:49:18.782Z,91.56
2019-01-11T23:50:18.685Z,91.28
2019-01-11T23:51:18.634Z,91.66
2019-01-11T23:52:18.550Z,91.85
2019-01-11T23:53:18.474Z,92.23
2019-01-11T23:54:24.510Z,92.32
2019-01-11T23:55:18.308Z,92.13
2019-01-11T23:56:18.246Z,91.94
2019-01-11T23:57:18.158Z,91.94
2019-01-11T23:58:18.079Z,92.13
2019-01-11T23:59:18.013Z,92.32
